createdAt,value
2018-01-17T00:00:10.572Z,2.20
2018-01-17T00:02:38.150Z,2.20
2018-01-17T00:05:06.550Z,2.20
2018-01-17T00:07:34.129Z,2.20
2018-01-17T00:10:01.866Z,2.20
2018-01-17T00:12:29.431Z,2.30
2018-01-17T00:14:57.137Z,2.30
2018-01-17T00:17:24.757Z,2.30
2018-01-17T00:19:52.287Z,2.30
2018-01-17T00:22:20.575Z,2.30
2018-01-17T00:24:48.127Z,2.30
2018-01-17T00:27:16.403Z,2.20
2018-01-17T00:29:44.700Z,2.20
2018-01-17T00:32:12.217Z,2.20
2018-01-17T00:34:39.738Z,2.20
2018-01-17T00:37:07.261Z,2.20
2018-01-17T00:39:34.807Z,2.20
2018-01-17T00:42:03.085Z,2.20
2018-01-17T00:44:46.081Z,2.20
2018-01-17T00:47:13.609Z,2.20
2018-01-17T00:49:41.145Z,2.30
2018-01-17T00:52:08.663Z,2.20
2018-01-17T00:54:36.202Z,2.20
2018-01-17T00:57:03.726Z,2.20
2018-01-17T00:59:31.263Z,2.20
2018-01-17T01:01:58.775Z,2.20
2018-01-17T01:04:26.317Z,2.20
2018-01-17T01:06:53.827Z,2.10
2018-01-17T01:09:21.355Z,2.10
2018-01-17T01:11:48.938Z,2.10
2018-01-17T01:14:16.445Z,2.00
2018-01-17T01:16:43.982Z,2.00
2018-01-17T01:19:11.517Z,2.00
2018-01-17T01:21:39.794Z,2.00
2018-01-17T01:24:08.098Z,2.00
2018-01-17T01:26:35.608Z,2.00
2018-01-17T01:29:03.120Z,2.00
2018-01-17T01:31:30.697Z,2.10
2018-01-17T01:33:58.267Z,2.10
2018-01-17T01:36:25.876Z,2.10
2018-01-17T01:38:53.384Z,2.00
2018-01-17T01:41:20.958Z,2.00
2018-01-17T01:43:48.506Z,2.00
2018-01-17T01:46:16.087Z,2.00
2018-01-17T01:48:55.542Z,2.00
2018-01-17T01:51:23.873Z,1.90
2018-01-17T01:53:51.426Z,1.90
2018-01-17T01:56:19.003Z,1.90
2018-01-17T01:58:46.564Z,1.90
2018-01-17T02:01:14.126Z,1.90
2018-01-17T02:03:41.687Z,1.80
2018-01-17T02:06:09.271Z,1.80
2018-01-17T02:08:37.591Z,1.80
2018-01-17T02:11:05.175Z,1.80
2018-01-17T02:13:32.729Z,1.80
2018-01-17T02:16:00.297Z,1.70
2018-01-17T02:18:27.808Z,1.70
2018-01-17T02:20:55.340Z,1.60
2018-01-17T02:23:23.621Z,1.60
2018-01-17T02:25:51.152Z,1.60
2018-01-17T02:28:19.456Z,1.60
2018-01-17T02:30:46.986Z,1.60
2018-01-17T02:33:14.508Z,1.60
2018-01-17T02:35:42.044Z,1.50
2018-01-17T02:38:09.565Z,1.50
2018-01-17T02:40:40.076Z,1.50
2018-01-17T02:43:07.590Z,1.50
2018-01-17T02:45:35.120Z,1.50
2018-01-17T02:48:03.388Z,1.60
2018-01-17T02:50:31.699Z,1.50
2018-01-17T02:52:59.217Z,1.50
2018-01-17T02:55:26.769Z,1.60
2018-01-17T02:57:55.065Z,1.60
2018-01-17T03:00:23.363Z,1.60
2018-01-17T03:02:50.876Z,1.60
2018-01-17T03:05:18.401Z,1.60
2018-01-17T03:07:45.924Z,1.60
2018-01-17T03:10:13.452Z,1.60
2018-01-17T03:12:40.990Z,1.60
2018-01-17T03:15:08.520Z,1.60
2018-01-17T03:17:36.028Z,1.60
2018-01-17T03:20:03.560Z,1.60
2018-01-17T03:22:31.082Z,1.60
2018-01-17T03:24:58.613Z,1.60
2018-01-17T03:27:27.808Z,1.60
2018-01-17T03:29:56.273Z,1.60
2018-01-17T03:32:23.784Z,1.50
2018-01-17T03:34:51.303Z,1.50
2018-01-17T03:37:19.600Z,1.60
2018-01-17T03:39:47.117Z,1.60
2018-01-17T03:42:14.641Z,1.60
2018-01-17T03:44:42.156Z,1.60
2018-01-17T03:47:10.456Z,1.70
2018-01-17T03:49:37.968Z,1.60
2018-01-17T03:52:05.496Z,1.70
2018-01-17T03:54:33.036Z,1.70
2018-01-17T03:57:00.584Z,1.70
2018-01-17T03:59:28.101Z,1.80
2018-01-17T04:01:55.636Z,1.80
2018-01-17T04:04:23.191Z,1.80
2018-01-17T04:06:50.734Z,1.90
2018-01-17T04:09:18.242Z,1.90
2018-01-17T04:11:45.785Z,1.90
2018-01-17T04:14:13.309Z,2.00
2018-01-17T04:16:40.849Z,2.00
2018-01-17T04:19:08.396Z,2.00
2018-01-17T04:21:36.709Z,2.00
2018-01-17T04:24:04.220Z,2.00
2018-01-17T04:26:32.529Z,2.10
2018-01-17T04:29:00.041Z,2.00
2018-01-17T04:31:27.574Z,2.10
2018-01-17T04:33:55.089Z,2.10
2018-01-17T04:36:22.629Z,2.20
2018-01-17T04:38:50.912Z,2.30
2018-01-17T04:41:19.212Z,2.40
2018-01-17T04:43:46.725Z,2.40
2018-01-17T04:46:14.252Z,2.50
2018-01-17T04:48:41.760Z,2.60
2018-01-17T04:51:09.304Z,2.60
2018-01-17T04:53:36.836Z,2.60
2018-01-17T04:56:04.363Z,2.60
2018-01-17T04:58:31.864Z,2.50
2018-01-17T05:00:59.392Z,2.40
2018-01-17T05:03:26.928Z,2.40
2018-01-17T05:05:54.443Z,2.30
2018-01-17T05:08:21.977Z,2.30
2018-01-17T05:10:49.479Z,2.30
2018-01-17T05:13:17.784Z,2.30
2018-01-17T05:15:45.305Z,2.30
2018-01-17T05:18:13.610Z,2.30
2018-01-17T05:20:41.119Z,2.20
2018-01-17T05:23:08.664Z,2.30
2018-01-17T05:25:36.174Z,2.30
2018-01-17T05:28:03.708Z,2.30
2018-01-17T05:30:31.216Z,2.30
2018-01-17T05:32:58.755Z,2.20
2018-01-17T05:35:26.264Z,2.20
2018-01-17T05:37:53.799Z,2.20
2018-01-17T05:40:21.307Z,2.10
2018-01-17T05:42:49.629Z,2.10
2018-01-17T05:45:17.200Z,2.10
2018-01-17T05:47:44.704Z,2.10
2018-01-17T05:50:12.983Z,2.10
2018-01-17T05:52:41.288Z,2.20
2018-01-17T05:55:08.800Z,2.20
2018-01-17T05:57:36.389Z,2.30
2018-01-17T06:00:03.905Z,2.30
2018-01-17T06:02:31.419Z,2.30
2018-01-17T06:04:58.961Z,2.40
2018-01-17T06:07:26.485Z,2.50
2018-01-17T06:09:54.011Z,2.50
2018-01-17T06:12:21.536Z,2.50
2018-01-17T06:14:49.067Z,2.50
2018-01-17T06:17:17.348Z,2.50
2018-01-17T06:19:45.657Z,2.50
2018-01-17T06:22:13.171Z,2.50
2018-01-17T06:24:40.705Z,2.50
2018-01-17T06:30:09.381Z,2.50
2018-01-17T06:32:36.897Z,2.50
2018-01-17T06:35:05.196Z,2.40
2018-01-17T06:37:49.867Z,2.40
2018-01-17T06:40:17.405Z,2.30
2018-01-17T06:42:45.693Z,2.00
2018-01-17T06:45:13.219Z,2.00
2018-01-17T06:47:40.728Z,1.80
2018-01-17T06:50:08.261Z,1.60
2018-01-17T06:52:35.781Z,1.40
2018-01-17T06:55:03.313Z,1.20
2018-01-17T06:57:30.820Z,1.00
2018-01-17T06:59:59.127Z,0.90
2018-01-17T07:02:26.655Z,0.80
2018-01-17T07:04:54.947Z,0.90
2018-01-17T07:07:22.473Z,0.90
2018-01-17T07:09:50.008Z,0.90
2018-01-17T07:12:17.526Z,1.00
2018-01-17T07:14:45.060Z,1.10
2018-01-17T07:17:12.574Z,1.10
2018-01-17T07:19:40.094Z,1.10
2018-01-17T07:22:07.624Z,1.10
2018-01-17T07:24:35.140Z,1.10
2018-01-17T07:27:02.669Z,1.10
2018-01-17T07:29:30.188Z,1.10
2018-01-17T07:31:57.724Z,1.20
2018-01-17T07:34:25.237Z,1.20
2018-01-17T07:36:53.568Z,1.30
2018-01-17T07:39:21.084Z,1.20
2018-01-17T07:41:48.617Z,1.30
2018-01-17T07:44:16.902Z,1.40
2018-01-17T07:46:45.535Z,1.40
2018-01-17T07:49:13.091Z,1.30
2018-01-17T07:51:40.649Z,1.40
2018-01-17T07:54:08.170Z,1.40
2018-01-17T07:56:35.717Z,1.40
2018-01-17T07:59:03.997Z,1.40
2018-01-17T08:01:32.296Z,1.40
2018-01-17T08:04:00.584Z,1.50
2018-01-17T08:06:28.884Z,1.50
2018-01-17T08:08:56.407Z,1.50
2018-01-17T08:11:23.942Z,1.50
2018-01-17T08:13:52.221Z,1.60
2018-01-17T08:16:19.749Z,1.60
2018-01-17T08:18:47.270Z,1.60
2018-01-17T08:21:14.817Z,1.60
2018-01-17T08:23:42.332Z,1.50
2018-01-17T08:26:10.659Z,1.50
2018-01-17T08:28:38.190Z,1.40
2018-01-17T08:31:05.773Z,1.50
2018-01-17T08:33:33.364Z,1.50
2018-01-17T08:36:00.892Z,1.50
2018-01-17T08:38:28.408Z,1.50
2018-01-17T08:40:56.704Z,1.50
2018-01-17T08:43:24.234Z,1.40
2018-01-17T08:45:52.532Z,1.50
2018-01-17T08:48:20.049Z,1.50
2018-01-17T08:50:47.583Z,1.50
2018-01-17T08:53:15.101Z,1.60
2018-01-17T08:55:43.395Z,1.70
2018-01-17T08:58:10.908Z,1.60
2018-01-17T09:00:38.446Z,1.70
2018-01-17T09:03:05.978Z,1.70
2018-01-17T09:05:33.496Z,1.60
2018-01-17T09:08:01.801Z,1.20
2018-01-17T09:10:29.323Z,1.10
2018-01-17T09:12:56.857Z,1.00
2018-01-17T09:15:24.372Z,0.90
2018-01-17T09:17:51.900Z,0.80
2018-01-17T09:20:20.177Z,0.70
2018-01-17T09:22:48.482Z,0.60
2018-01-17T09:25:16.004Z,0.60
2018-01-17T09:27:43.542Z,0.60
2018-01-17T09:30:11.069Z,0.70
2018-01-17T09:32:38.612Z,0.80
2018-01-17T09:35:06.120Z,0.90
2018-01-17T09:37:33.662Z,1.00
2018-01-17T09:40:01.168Z,1.20
2018-01-17T09:42:29.464Z,1.70
2018-01-17T09:44:56.980Z,1.60
2018-01-17T09:47:24.513Z,1.70
2018-01-17T09:49:52.031Z,1.70
2018-01-17T09:52:19.573Z,1.80
2018-01-17T09:54:47.861Z,1.90
2018-01-17T09:57:15.400Z,1.90
2018-01-17T09:59:43.681Z,1.80
2018-01-17T10:02:11.987Z,1.80
2018-01-17T10:04:39.497Z,1.80
2018-01-17T10:07:07.028Z,1.80
2018-01-17T10:09:34.551Z,1.90
2018-01-17T10:12:02.089Z,1.90
2018-01-17T10:14:30.373Z,1.90
2018-01-17T10:16:58.679Z,1.80
2018-01-17T10:19:26.200Z,1.80
2018-01-17T10:21:53.745Z,1.70
2018-01-17T10:24:21.257Z,1.40
2018-01-17T10:26:48.797Z,1.00
2018-01-17T10:29:16.312Z,0.80
2018-01-17T10:31:43.840Z,0.60
2018-01-17T10:34:11.404Z,0.50
2018-01-17T10:36:38.940Z,0.60
2018-01-17T10:39:06.452Z,0.70
2018-01-17T10:41:34.753Z,1.10
2018-01-17T10:44:02.272Z,1.10
2018-01-17T10:46:29.803Z,1.60
2018-01-17T10:48:57.333Z,1.80
2018-01-17T10:51:24.879Z,1.80
2018-01-17T10:53:53.172Z,1.70
2018-01-17T10:56:20.703Z,1.70
2018-01-17T10:58:48.984Z,2.10
2018-01-17T11:01:17.260Z,2.20
2018-01-17T11:03:45.551Z,2.60
2018-01-17T11:06:13.729Z,2.60
2018-01-17T11:08:41.321Z,3.20
2018-01-17T11:11:08.835Z,4.20
2018-01-17T11:13:36.364Z,4.90
2018-01-17T11:16:03.890Z,5.50
2018-01-17T11:18:31.427Z,5.80
2018-01-17T11:20:58.951Z,5.70
2018-01-17T11:23:27.255Z,4.80
2018-01-17T11:25:54.769Z,4.80
2018-01-17T11:28:22.297Z,4.70
2018-01-17T11:30:49.804Z,4.50
2018-01-17T11:33:17.349Z,4.10
2018-01-17T11:35:44.874Z,3.70
2018-01-17T11:38:12.413Z,3.60
2018-01-17T11:40:39.955Z,3.50
2018-01-17T11:43:07.491Z,3.10
2018-01-17T11:45:35.778Z,2.70
2018-01-17T11:48:04.084Z,2.70
2018-01-17T11:50:31.600Z,2.60
2018-01-17T11:52:59.914Z,2.50
2018-01-17T11:55:27.437Z,2.50
2018-01-17T11:57:54.995Z,2.40
2018-01-17T12:00:23.278Z,2.40
2018-01-17T12:02:51.645Z,2.50
2018-01-17T12:05:19.929Z,2.50
2018-01-17T12:07:48.225Z,2.60
2018-01-17T12:10:15.732Z,2.60
2018-01-17T12:12:43.271Z,2.80
2018-01-17T12:15:10.784Z,2.90
2018-01-17T12:17:38.331Z,3.00
2018-01-17T12:20:06.608Z,2.90
2018-01-17T12:22:34.920Z,3.00
2018-01-17T12:25:02.428Z,3.00
2018-01-17T12:27:30.012Z,3.10
2018-01-17T12:29:57.557Z,3.20
2018-01-17T12:32:25.877Z,3.40
2018-01-17T12:34:53.426Z,3.40
2018-01-17T12:37:20.968Z,3.20
2018-01-17T12:39:48.476Z,3.00
2018-01-17T12:42:16.018Z,3.00
2018-01-17T12:44:43.542Z,3.00
2018-01-17T12:47:11.084Z,3.20
2018-01-17T12:49:39.363Z,3.40
2018-01-17T12:52:07.665Z,3.70
2018-01-17T12:54:35.196Z,3.70
2018-01-17T12:57:03.496Z,4.00
2018-01-17T12:59:31.012Z,4.00
2018-01-17T13:01:58.564Z,5.00
2018-01-17T13:04:26.097Z,5.30
2018-01-17T13:06:53.674Z,5.00
2018-01-17T13:09:21.214Z,4.40
2018-01-17T13:11:48.748Z,3.80
2018-01-17T13:14:17.438Z,3.40
2018-01-17T13:16:45.697Z,3.10
2018-01-17T13:19:13.232Z,3.10
2018-01-17T13:21:40.765Z,3.10
2018-01-17T13:24:08.305Z,3.10
2018-01-17T13:26:35.829Z,3.00
2018-01-17T13:29:03.359Z,2.90
2018-01-17T13:31:30.878Z,2.70
2018-01-17T13:33:58.403Z,2.60
2018-01-17T13:36:25.928Z,2.50
2018-01-17T13:38:53.461Z,2.30
2018-01-17T13:41:20.975Z,2.20
2018-01-17T13:43:48.512Z,2.10
2018-01-17T13:46:16.788Z,1.90
2018-01-17T13:48:45.094Z,1.60
2018-01-17T13:51:12.609Z,1.60
2018-01-17T13:53:40.140Z,1.20
2018-01-17T13:56:07.652Z,0.80
2018-01-17T13:58:35.962Z,0.40
2018-01-17T14:01:03.485Z,0.40
2018-01-17T14:03:31.793Z,0.30
2018-01-17T14:05:59.313Z,0.30
2018-01-17T14:08:26.872Z,0.40
2018-01-17T14:10:55.156Z,0.60
2018-01-17T14:13:23.457Z,0.70
2018-01-17T14:15:50.974Z,0.60
2018-01-17T14:18:19.277Z,0.60
2018-01-17T14:20:46.796Z,0.60
2018-01-17T14:23:14.323Z,0.60
2018-01-17T14:25:41.843Z,0.70
2018-01-17T14:28:09.382Z,0.70
2018-01-17T14:30:37.673Z,0.80
2018-01-17T14:33:05.974Z,0.80
2018-01-17T14:35:33.489Z,0.80
2018-01-17T14:38:01.025Z,0.90
2018-01-17T14:40:28.543Z,0.90
2018-01-17T14:43:01.817Z,0.90
2018-01-17T14:45:30.109Z,0.80
2018-01-17T14:47:57.641Z,0.80
2018-01-17T14:50:25.932Z,0.90
2018-01-17T14:52:53.475Z,0.90
2018-01-17T14:55:21.759Z,1.00
2018-01-17T14:57:50.061Z,1.00
2018-01-17T15:00:17.580Z,0.90
2018-01-17T15:02:45.995Z,1.00
2018-01-17T15:05:13.509Z,1.00
2018-01-17T15:07:41.024Z,1.00
2018-01-17T15:10:08.564Z,1.00
2018-01-17T15:12:36.080Z,1.00
2018-01-17T15:15:03.629Z,1.00
2018-01-17T15:17:31.145Z,1.10
2018-01-17T15:19:58.688Z,1.10
2018-01-17T15:22:26.207Z,1.10
2018-01-17T15:24:53.733Z,1.10
2018-01-17T15:27:21.252Z,1.20
2018-01-17T15:29:49.601Z,1.20
2018-01-17T15:32:17.113Z,1.20
2018-01-17T15:34:44.648Z,1.30
2018-01-17T15:37:12.934Z,1.30
2018-01-17T15:39:40.467Z,1.20
2018-01-17T15:42:08.752Z,1.20
2018-01-17T15:44:37.049Z,1.30
2018-01-17T15:47:04.560Z,1.20
2018-01-17T15:49:32.157Z,1.20
2018-01-17T15:51:59.669Z,1.20
2018-01-17T15:54:27.200Z,1.10
2018-01-17T15:56:54.722Z,1.10
2018-01-17T15:59:22.301Z,1.10
2018-01-17T16:01:49.812Z,1.00
2018-01-17T16:04:17.323Z,1.10
2018-01-17T16:06:44.871Z,1.10
2018-01-17T16:09:12.385Z,1.20
2018-01-17T16:11:39.924Z,1.20
2018-01-17T16:14:07.432Z,1.20
2018-01-17T16:16:34.968Z,1.30
2018-01-17T16:19:02.494Z,1.40
2018-01-17T16:21:30.025Z,1.40
2018-01-17T16:23:58.316Z,1.50
2018-01-17T16:26:25.848Z,1.50
2018-01-17T16:28:53.364Z,1.50
2018-01-17T16:31:20.882Z,1.60
2018-01-17T16:33:48.424Z,1.50
2018-01-17T16:36:15.945Z,1.30
2018-01-17T16:38:43.474Z,1.20
2018-01-17T16:41:11.012Z,1.20
2018-01-17T16:43:38.551Z,1.20
2018-01-17T16:46:06.077Z,1.10
2018-01-17T16:48:33.626Z,1.20
2018-01-17T16:51:01.156Z,1.30
2018-01-17T16:53:28.680Z,1.30
2018-01-17T16:55:56.216Z,1.30
2018-01-17T16:58:24.516Z,1.40
2018-01-17T17:00:52.093Z,1.40
2018-01-17T17:03:19.604Z,1.40
2018-01-17T17:05:47.139Z,1.50
2018-01-17T17:08:14.653Z,1.50
2018-01-17T17:10:42.188Z,1.40
2018-01-17T17:13:10.464Z,1.40
2018-01-17T17:15:38.768Z,1.40
2018-01-17T17:18:06.292Z,1.40
2018-01-17T17:20:34.588Z,1.40
2018-01-17T17:23:02.188Z,1.40
2018-01-17T17:25:29.677Z,1.40
2018-01-17T17:27:57.221Z,1.40
2018-01-17T17:30:24.744Z,1.40
2018-01-17T17:32:52.293Z,1.50
2018-01-17T17:35:19.811Z,1.40
2018-01-17T17:37:47.355Z,1.50
2018-01-17T17:40:14.868Z,1.40
2018-01-17T17:42:42.399Z,1.40
2018-01-17T17:45:10.681Z,1.40
2018-01-17T17:47:38.985Z,1.40
2018-01-17T17:50:06.502Z,1.40
2018-01-17T17:52:34.789Z,1.40
2018-01-17T17:55:02.324Z,1.30
2018-01-17T17:57:29.833Z,1.30
2018-01-17T17:59:57.380Z,1.30
2018-01-17T18:02:24.909Z,1.20
2018-01-17T18:04:53.215Z,1.00
2018-01-17T18:07:20.732Z,0.90
2018-01-17T18:09:48.290Z,0.90
2018-01-17T18:12:15.809Z,0.80
2018-01-17T18:14:43.345Z,0.80
2018-01-17T18:17:10.861Z,0.80
2018-01-17T18:19:38.398Z,0.80
2018-01-17T18:22:05.909Z,0.80
2018-01-17T18:24:34.192Z,0.80
2018-01-17T18:27:01.756Z,0.80
2018-01-17T18:29:29.267Z,0.90
2018-01-17T18:31:56.796Z,0.90
2018-01-17T18:34:24.309Z,0.80
2018-01-17T18:36:51.848Z,0.70
2018-01-17T18:39:19.360Z,0.60
2018-01-17T18:41:46.928Z,0.50
2018-01-17T18:44:14.440Z,0.50
2018-01-17T18:46:42.742Z,0.60
2018-01-17T18:49:10.257Z,0.60
2018-01-17T18:51:37.795Z,0.60
2018-01-17T18:54:05.308Z,0.70
2018-01-17T18:56:32.862Z,0.70
2018-01-17T18:59:00.376Z,0.80
2018-01-17T19:01:27.908Z,0.80
2018-01-17T19:03:55.428Z,0.80
2018-01-17T19:06:23.704Z,0.80
2018-01-17T19:08:52.001Z,0.90
2018-01-17T19:11:19.520Z,0.80
2018-01-17T19:13:47.827Z,0.90
2018-01-17T19:16:15.340Z,0.90
2018-01-17T19:18:42.869Z,1.00
2018-01-17T19:21:10.388Z,1.00
2018-01-17T19:23:38.677Z,1.00
2018-01-17T19:26:06.195Z,1.00
2018-01-17T19:28:33.732Z,1.00
2018-01-17T19:31:01.244Z,1.00
2018-01-17T19:33:28.758Z,1.00
2018-01-17T19:35:56.292Z,1.00
2018-01-17T19:38:23.800Z,1.00
2018-01-17T19:40:52.096Z,1.00
2018-01-17T19:43:19.629Z,1.00
2018-01-17T19:45:47.963Z,1.10
2018-01-17T19:48:15.472Z,1.10
2018-01-17T19:50:43.074Z,1.10
2018-01-17T19:53:11.164Z,1.10
2018-01-17T19:55:38.698Z,1.10
2018-01-17T19:58:06.216Z,1.20
2018-01-17T20:00:34.522Z,1.20
2018-01-17T20:03:02.077Z,1.20
2018-01-17T20:05:29.617Z,1.20
2018-01-17T20:07:57.941Z,1.20
2018-01-17T20:10:25.567Z,1.20
2018-01-17T20:12:53.862Z,1.30
2018-01-17T20:15:21.407Z,1.20
2018-01-17T20:17:48.953Z,1.30
2018-01-17T20:20:16.530Z,1.30
2018-01-17T20:22:49.669Z,1.40
2018-01-17T20:25:17.196Z,1.40
2018-01-17T20:27:44.707Z,1.50
2018-01-17T20:30:13.005Z,1.50
2018-01-17T20:32:40.568Z,1.50
2018-01-17T20:35:08.097Z,1.50
2018-01-17T20:37:35.625Z,1.50
2018-01-17T20:40:03.161Z,1.60
2018-01-17T20:42:30.710Z,1.60
2018-01-17T20:44:58.244Z,1.70
2018-01-17T20:47:25.778Z,1.70
2018-01-17T20:49:54.088Z,1.70
2018-01-17T20:52:21.608Z,1.70
2018-01-17T20:54:49.185Z,1.70
2018-01-17T20:57:17.464Z,1.50
2018-01-17T20:59:45.782Z,1.40
2018-01-17T21:02:13.361Z,1.40
2018-01-17T21:04:40.935Z,1.30
2018-01-17T21:07:08.472Z,1.30
2018-01-17T21:09:35.981Z,1.30
2018-01-17T21:12:03.516Z,1.30
2018-01-17T21:14:31.823Z,1.30
2018-01-17T21:16:59.356Z,1.30
2018-01-17T21:19:27.671Z,1.30
2018-01-17T21:21:55.202Z,1.30
2018-01-17T21:24:23.528Z,1.10
2018-01-17T21:26:51.078Z,1.10
2018-01-17T21:29:18.644Z,1.10
2018-01-17T21:31:46.178Z,1.10
2018-01-17T21:34:13.733Z,1.10
2018-01-17T21:36:41.318Z,1.10
2018-01-17T21:39:08.871Z,1.00
2018-01-17T21:41:36.420Z,1.10
2018-01-17T21:44:09.648Z,1.20
2018-01-17T21:46:37.189Z,1.20
2018-01-17T21:49:04.756Z,1.30
2018-01-17T21:51:32.297Z,1.40
2018-01-17T21:53:59.820Z,1.40
2018-01-17T21:56:27.399Z,1.40
2018-01-17T21:58:54.972Z,1.40
2018-01-17T22:01:22.550Z,1.40
2018-01-17T22:03:50.101Z,1.50
2018-01-17T22:06:17.649Z,1.50
2018-01-17T22:08:45.219Z,1.50
2018-01-17T22:11:12.758Z,1.60
2018-01-17T22:13:40.269Z,1.60
2018-01-17T22:16:08.572Z,1.60
2018-01-17T22:18:36.105Z,1.60
2018-01-17T22:21:03.640Z,1.60
2018-01-17T22:23:31.154Z,1.50
2018-01-17T22:25:58.692Z,1.50
2018-01-17T22:28:26.261Z,1.50
2018-01-17T22:30:53.776Z,1.50
2018-01-17T22:33:21.310Z,1.50
2018-01-17T22:35:48.875Z,1.50
2018-01-17T22:38:16.455Z,1.50
2018-01-17T22:40:43.967Z,1.50
2018-01-17T22:43:11.500Z,1.50
2018-01-17T22:45:39.790Z,1.60
2018-01-17T22:48:07.323Z,1.60
2018-01-17T22:50:35.600Z,1.60
2018-01-17T22:53:03.903Z,1.60
2018-01-17T22:55:31.420Z,1.60
2018-01-17T22:57:58.944Z,1.60
2018-01-17T23:00:26.459Z,1.60
2018-01-17T23:02:53.997Z,1.60
2018-01-17T23:05:21.511Z,1.50
2018-01-17T23:07:49.049Z,1.50
2018-01-17T23:10:16.560Z,1.50
2018-01-17T23:12:44.079Z,1.50
2018-01-17T23:15:11.599Z,1.40
2018-01-17T23:17:39.922Z,1.40
2018-01-17T23:20:07.448Z,1.40
2018-01-17T23:22:34.981Z,1.30
2018-01-17T23:25:03.266Z,1.30
2018-01-17T23:27:31.572Z,1.30
2018-01-17T23:29:59.091Z,1.20
2018-01-17T23:32:26.629Z,1.20
2018-01-17T23:34:54.145Z,1.10
2018-01-17T23:37:22.443Z,1.00
2018-01-17T23:39:49.955Z,1.00
2018-01-17T23:42:18.296Z,1.10
2018-01-17T23:44:45.797Z,1.00
2018-01-17T23:47:13.324Z,1.10
2018-01-17T23:49:40.835Z,1.20
2018-01-17T23:52:08.368Z,1.20
2018-01-17T23:54:35.880Z,1.20
2018-01-17T23:57:03.444Z,1.20
2018-01-17T23:59:30.958Z,1.20
